createdAt,value
2022-10-30T00:00:02.348Z,19.07
2022-10-30T00:03:04.004Z,19.07
2022-10-30T00:05:35.556Z,18.79
2022-10-30T00:08:06.952Z,18.73
2022-10-30T00:10:38.236Z,18.82
2022-10-30T00:13:08.899Z,18.88
2022-10-30T00:15:39.763Z,18.90
2022-10-30T00:18:11.194Z,19.09
2022-10-30T00:20:41.929Z,19.26
2022-10-30T00:23:16.603Z,18.83
2022-10-30T00:25:47.180Z,18.72
2022-10-30T00:28:18.632Z,18.82
2022-10-30T00:30:49.466Z,18.59
2022-10-30T00:33:20.916Z,18.80
2022-10-30T00:35:51.451Z,18.77
2022-10-30T00:38:23.162Z,18.88
2022-10-30T00:40:54.749Z,18.73
2022-10-30T00:43:32.905Z,18.89
2022-10-30T00:46:07.379Z,18.82
2022-10-30T00:48:38.347Z,19.17
2022-10-30T00:51:10.409Z,18.88
2022-10-30T00:53:41.961Z,18.68
2022-10-30T00:56:15.532Z,18.89
2022-10-30T00:58:49.198Z,18.46
2022-10-30T01:01:18.347Z,18.21
2022-10-30T01:03:51.025Z,18.26
2022-10-30T01:06:22.263Z,18.56
2022-10-30T01:08:58.751Z,18.46
2022-10-30T01:11:31.711Z,18.14
2022-10-30T01:14:04.877Z,17.98
2022-10-30T01:16:45.923Z,18.13
2022-10-30T01:19:24.492Z,18.78
2022-10-30T01:22:00.964Z,18.95
2022-10-30T01:24:38.479Z,19.18
2022-10-30T01:27:19.839Z,19.14
2022-10-30T01:29:57.025Z,19.00
2022-10-30T01:32:37.587Z,18.74
2022-10-30T01:35:11.943Z,18.15
2022-10-30T01:37:49.127Z,18.15
2022-10-30T01:40:20.640Z,18.25
2022-10-30T01:42:52.910Z,18.29
2022-10-30T01:45:44.950Z,18.50
2022-10-30T01:48:35.439Z,18.60
2022-10-30T01:51:14.162Z,19.02
2022-10-30T01:53:49.538Z,19.33
2022-10-30T01:56:23.591Z,18.06
2022-10-30T01:58:59.370Z,17.72
2022-10-30T02:01:33.103Z,18.12
2022-10-30T02:06:40.000Z,18.39
2022-10-30T02:09:11.511Z,18.89
2022-10-30T02:11:51.467Z,19.07
2022-10-30T02:14:24.652Z,18.74
2022-10-30T02:16:58.197Z,18.36
2022-10-30T02:19:28.680Z,18.16
2022-10-30T02:21:59.890Z,18.51
2022-10-30T02:24:31.886Z,18.52
2022-10-30T02:27:04.382Z,18.33
2022-10-30T02:29:35.749Z,18.53
2022-10-30T02:32:06.911Z,18.87
2022-10-30T02:34:38.401Z,18.82
2022-10-30T02:37:09.627Z,18.34
2022-10-30T02:39:42.528Z,17.91
2022-10-30T02:42:13.943Z,17.88
2022-10-30T02:44:44.682Z,18.39
2022-10-30T02:47:16.270Z,18.26
2022-10-30T02:49:47.825Z,18.33
2022-10-30T02:52:19.063Z,18.51
2022-10-30T02:54:49.806Z,18.56
2022-10-30T02:57:21.175Z,18.06
2022-10-30T02:59:51.982Z,17.89
2022-10-30T03:02:23.071Z,18.21
2022-10-30T03:04:55.449Z,18.02
2022-10-30T03:07:27.766Z,18.06
2022-10-30T03:10:00.637Z,18.25
2022-10-30T03:12:35.451Z,18.12
2022-10-30T03:15:09.324Z,17.48
2022-10-30T03:17:42.394Z,17.48
2022-10-30T03:20:17.703Z,17.36
2022-10-30T03:22:51.787Z,17.36
2022-10-30T03:25:28.258Z,17.67
2022-10-30T03:28:09.943Z,18.31
2022-10-30T03:30:44.739Z,18.39
2022-10-30T03:33:16.906Z,18.46
2022-10-30T03:35:49.287Z,18.62
2022-10-30T03:38:23.174Z,18.38
2022-10-30T03:40:57.586Z,18.27
2022-10-30T03:43:32.568Z,18.45
2022-10-30T03:46:06.189Z,18.01
2022-10-30T03:48:39.926Z,17.88
2022-10-30T03:51:14.156Z,17.88
2022-10-30T03:53:49.357Z,17.86
2022-10-30T03:56:21.188Z,17.72
2022-10-30T03:58:55.172Z,17.43
2022-10-30T04:01:26.425Z,17.64
2022-10-30T04:03:59.838Z,17.80
2022-10-30T04:06:30.457Z,17.75
2022-10-30T04:23:16.717Z,17.55
2022-10-30T04:25:48.768Z,16.84
2022-10-30T04:28:21.548Z,17.07
2022-10-30T04:30:53.593Z,17.33
2022-10-30T04:33:24.997Z,17.45
2022-10-30T04:35:56.394Z,17.29
2022-10-30T04:38:27.238Z,17.41
2022-10-30T04:40:59.499Z,17.25
2022-10-30T04:43:42.298Z,17.54
2022-10-30T04:46:13.070Z,17.40
2022-10-30T04:48:44.119Z,17.08
2022-10-30T04:51:16.369Z,17.12
2022-10-30T04:53:48.544Z,17.21
2022-10-30T04:56:19.359Z,17.32
2022-10-30T04:58:50.207Z,17.37
2022-10-30T05:01:21.216Z,17.36
2022-10-30T05:03:54.747Z,17.50
2022-10-30T05:06:27.104Z,17.81
2022-10-30T05:08:58.311Z,18.22
2022-10-30T05:11:36.668Z,17.94
2022-10-30T05:14:07.400Z,17.95
2022-10-30T05:16:38.243Z,18.08
2022-10-30T05:19:09.682Z,17.91
2022-10-30T05:21:41.132Z,17.67
2022-10-30T05:24:12.065Z,17.42
2022-10-30T05:26:47.005Z,17.35
2022-10-30T05:29:23.068Z,17.31
2022-10-30T05:31:53.987Z,17.33
2022-10-30T05:34:47.183Z,17.92
2022-10-30T05:37:21.275Z,17.82
2022-10-30T05:39:55.012Z,17.79
2022-10-30T05:42:33.041Z,18.38
2022-10-30T05:45:09.166Z,16.88
2022-10-30T05:47:43.929Z,16.93
2022-10-30T05:50:27.596Z,17.82
2022-10-30T05:53:18.404Z,17.37
2022-10-30T05:55:52.302Z,17.25
2022-10-30T05:58:26.313Z,17.49
2022-10-30T06:01:01.419Z,17.43
2022-10-30T06:03:41.663Z,17.50
2022-10-30T06:06:15.142Z,17.51
2022-10-30T06:08:48.729Z,17.88
2022-10-30T06:11:38.101Z,18.20
2022-10-30T06:14:10.626Z,18.21
2022-10-30T06:17:00.024Z,18.04
2022-10-30T06:19:37.490Z,17.78
2022-10-30T06:22:28.950Z,17.26
2022-10-30T06:25:06.867Z,17.81
2022-10-30T06:27:59.075Z,17.64
2022-10-30T06:30:31.663Z,18.02
2022-10-30T06:33:03.506Z,17.43
2022-10-30T06:35:34.777Z,17.74
2022-10-30T06:38:05.903Z,18.67
2022-10-30T06:40:38.042Z,17.94
2022-10-30T06:43:27.488Z,17.25
2022-10-30T06:46:11.484Z,17.68
2022-10-30T06:48:45.859Z,18.20
2022-10-30T06:51:17.754Z,18.34
2022-10-30T06:53:49.918Z,18.58
2022-10-30T06:56:39.089Z,18.59
2022-10-30T06:59:20.907Z,18.19
2022-10-30T07:02:01.762Z,18.17
2022-10-30T07:04:49.081Z,18.89
2022-10-30T07:07:21.031Z,18.09
2022-10-30T07:09:53.766Z,16.86
2022-10-30T07:12:32.164Z,17.08
2022-10-30T07:15:15.927Z,17.46
2022-10-30T07:18:13.397Z,17.85
2022-10-30T07:20:44.548Z,18.21
2022-10-30T07:23:16.056Z,18.50
2022-10-30T07:25:48.953Z,19.09
2022-10-30T07:28:26.585Z,18.17
2022-10-30T07:31:24.243Z,17.56
2022-10-30T07:34:41.743Z,18.33
2022-10-30T07:37:32.208Z,18.56
2022-10-30T07:40:13.181Z,18.51
2022-10-30T07:43:13.514Z,19.07
2022-10-30T07:46:00.105Z,18.61
2022-10-30T07:49:03.750Z,19.17
2022-10-30T07:51:48.677Z,18.25
2022-10-30T07:54:21.437Z,17.88
2022-10-30T07:56:52.590Z,18.16
2022-10-30T07:59:42.117Z,18.94
2022-10-30T08:02:24.990Z,19.65
2022-10-30T08:05:18.639Z,17.90
2022-10-30T08:08:18.462Z,19.19
2022-10-30T08:10:50.025Z,19.02
2022-10-30T08:13:21.219Z,17.92
2022-10-30T08:15:52.277Z,19.00
2022-10-30T08:18:23.039Z,19.45
2022-10-30T08:20:54.510Z,19.15
2022-10-30T08:34:49.766Z,19.48
2022-10-30T08:37:22.160Z,18.43
2022-10-30T08:39:52.978Z,19.32
2022-10-30T08:42:39.094Z,19.68
2022-10-30T08:45:13.755Z,18.56
2022-10-30T08:48:02.404Z,19.48
2022-10-30T08:50:34.868Z,19.85
2022-10-30T08:53:07.096Z,18.65
2022-10-30T08:55:38.636Z,19.45
2022-10-30T08:58:14.499Z,19.48
2022-10-30T09:00:48.634Z,18.61
2022-10-30T09:03:19.960Z,19.43
2022-10-30T09:06:10.725Z,19.99
2022-10-30T09:09:00.006Z,18.77
2022-10-30T09:11:40.282Z,19.44
2022-10-30T09:14:11.729Z,19.82
2022-10-30T09:16:43.614Z,18.95
2022-10-30T09:19:18.605Z,18.62
2022-10-30T09:21:50.679Z,19.69
2022-10-30T09:24:21.723Z,20.35
2022-10-30T09:27:12.465Z,19.14
2022-10-30T09:29:53.094Z,18.52
2022-10-30T09:32:29.014Z,19.61
2022-10-30T09:35:07.670Z,20.49
2022-10-30T09:37:44.139Z,19.67
2022-10-30T09:40:21.260Z,19.08
2022-10-30T09:42:52.281Z,20.49
2022-10-30T09:45:35.436Z,20.41
2022-10-30T09:48:15.710Z,19.48
2022-10-30T09:51:14.787Z,18.94
2022-10-30T09:53:54.993Z,20.57
2022-10-30T09:56:32.849Z,20.19
2022-10-30T09:59:07.692Z,19.34
2022-10-30T10:01:41.913Z,19.01
2022-10-30T10:04:23.873Z,20.25
2022-10-30T10:07:21.025Z,19.79
2022-10-30T10:10:18.937Z,19.09
2022-10-30T10:13:00.379Z,19.18
2022-10-30T10:15:35.993Z,20.61
2022-10-30T10:18:12.887Z,20.47
2022-10-30T10:20:45.240Z,19.85
2022-10-30T10:33:02.945Z,21.87
2022-10-30T10:35:58.030Z,21.10
2022-10-30T10:38:36.826Z,20.41
2022-10-30T10:41:16.053Z,20.02
2022-10-30T10:44:02.116Z,19.74
2022-10-30T10:46:38.882Z,19.60
2022-10-30T10:49:15.148Z,19.94
2022-10-30T10:51:49.458Z,21.16
2022-10-30T10:54:24.041Z,21.08
2022-10-30T10:56:55.727Z,20.82
2022-10-30T10:59:28.703Z,20.63
2022-10-30T11:02:11.587Z,20.48
2022-10-30T11:04:44.005Z,20.35
2022-10-30T11:07:20.904Z,20.28
2022-10-30T11:09:53.769Z,20.29
2022-10-30T11:12:30.793Z,20.32
2022-10-30T11:15:08.346Z,20.40
2022-10-30T11:17:44.570Z,20.76
2022-10-30T11:20:21.308Z,22.14
2022-10-30T11:22:54.850Z,22.61
2022-10-30T11:25:31.404Z,22.14
2022-10-30T11:28:05.972Z,21.80
2022-10-30T11:30:38.120Z,21.55
2022-10-30T11:33:22.680Z,21.37
2022-10-30T11:35:54.361Z,21.20
2022-10-30T11:38:28.685Z,21.07
2022-10-30T11:41:03.768Z,20.98
2022-10-30T11:43:34.822Z,20.89
2022-10-30T11:46:09.497Z,20.84
2022-10-30T11:48:44.458Z,20.82
2022-10-30T11:51:15.869Z,20.82
2022-10-30T11:53:49.838Z,20.81
2022-10-30T11:56:21.515Z,20.82
2022-10-30T11:58:53.125Z,20.81
2022-10-30T12:01:25.135Z,20.80
2022-10-30T12:03:56.764Z,20.77
2022-10-30T12:06:30.375Z,20.70
2022-10-30T12:09:01.722Z,20.62
2022-10-30T12:11:34.095Z,20.61
2022-10-30T12:14:05.126Z,20.67
2022-10-30T12:16:35.563Z,20.70
2022-10-30T12:19:09.913Z,20.69
2022-10-30T12:21:46.127Z,20.70
2022-10-30T12:24:20.044Z,20.73
2022-10-30T12:26:52.443Z,20.72
2022-10-30T12:29:36.492Z,20.70
2022-10-30T12:32:21.121Z,20.67
2022-10-30T12:34:57.082Z,20.67
2022-10-30T12:37:29.347Z,20.67
2022-10-30T12:40:02.836Z,20.65
2022-10-30T12:42:36.580Z,20.64
2022-10-30T12:45:13.837Z,20.64
2022-10-30T12:47:47.287Z,20.63
2022-10-30T12:50:21.181Z,20.66
2022-10-30T12:52:55.608Z,20.68
2022-10-30T12:55:28.926Z,20.73
2022-10-30T12:57:57.856Z,20.77
2022-10-30T13:00:30.425Z,20.87
2022-10-30T13:03:02.924Z,20.99
2022-10-30T13:05:42.264Z,21.13
2022-10-30T13:08:22.138Z,21.27
2022-10-30T13:10:54.289Z,21.45
2022-10-30T13:13:26.389Z,21.70
2022-10-30T13:15:58.475Z,22.30
2022-10-30T13:18:31.725Z,23.05
2022-10-30T13:21:07.610Z,23.66
2022-10-30T13:23:42.208Z,24.13
2022-10-30T13:26:18.831Z,24.63
2022-10-30T13:28:57.385Z,24.97
2022-10-30T13:31:34.353Z,24.92
2022-10-30T13:34:15.369Z,24.68
2022-10-30T13:36:50.599Z,24.51
2022-10-30T13:39:26.502Z,24.53
2022-10-30T13:42:02.455Z,24.70
2022-10-30T13:44:39.615Z,24.93
2022-10-30T13:47:17.144Z,25.21
2022-10-30T13:49:56.435Z,25.48
2022-10-30T13:52:29.427Z,25.73
2022-10-30T13:55:02.764Z,26.08
2022-10-30T13:57:36.832Z,26.36
2022-10-30T14:00:16.325Z,26.32
2022-10-30T14:03:05.255Z,26.33
2022-10-30T14:05:40.205Z,26.47
2022-10-30T14:08:15.445Z,26.36
2022-10-30T14:10:54.548Z,26.15
2022-10-30T14:13:29.637Z,26.04
2022-10-30T14:16:04.117Z,25.88
2022-10-30T14:18:47.700Z,25.79
2022-10-30T14:21:35.868Z,25.83
2022-10-30T14:24:12.447Z,25.79
2022-10-30T14:26:49.981Z,25.85
2022-10-30T14:29:43.326Z,25.85
2022-10-30T14:32:31.728Z,25.81
2022-10-30T14:35:03.540Z,25.74
2022-10-30T14:37:48.390Z,25.54
2022-10-30T14:40:37.735Z,25.23
2022-10-30T14:43:11.222Z,24.92
2022-10-30T14:45:47.180Z,24.66
2022-10-30T14:48:21.829Z,24.37
2022-10-30T14:50:58.501Z,24.09
2022-10-30T14:53:36.176Z,23.83
2022-10-30T14:56:11.919Z,23.59
2022-10-30T14:58:43.605Z,23.37
2022-10-30T15:01:29.839Z,23.16
2022-10-30T15:04:15.128Z,22.92
2022-10-30T15:06:52.823Z,22.69
2022-10-30T15:09:30.543Z,22.48
2022-10-30T15:12:08.549Z,22.26
2022-10-30T15:14:53.375Z,22.03
2022-10-30T15:17:29.646Z,21.73
2022-10-30T15:20:01.838Z,21.45
2022-10-30T15:22:33.391Z,21.19
2022-10-30T15:25:04.553Z,20.97
2022-10-30T15:27:36.259Z,20.77
2022-10-30T15:30:08.396Z,20.58
2022-10-30T15:32:42.053Z,20.45
2022-10-30T15:35:15.384Z,21.35
2022-10-30T15:37:58.871Z,22.38
2022-10-30T15:40:29.517Z,21.87
2022-10-30T15:43:01.160Z,21.30
2022-10-30T15:45:34.462Z,20.88
2022-10-30T15:48:08.059Z,20.56
2022-10-30T15:50:41.157Z,20.31
2022-10-30T15:53:18.413Z,20.29
2022-10-30T15:55:49.984Z,21.41
2022-10-30T15:58:22.993Z,22.22
2022-10-30T16:01:00.065Z,21.77
2022-10-30T16:03:31.002Z,21.14
2022-10-30T16:06:15.610Z,20.66
2022-10-30T16:08:47.428Z,20.30
2022-10-30T16:11:18.245Z,20.02
2022-10-30T16:13:49.215Z,20.12
2022-10-30T16:16:22.404Z,21.36
2022-10-30T16:18:51.681Z,22.12
2022-10-30T16:21:23.358Z,21.56
2022-10-30T16:23:55.403Z,20.86
2022-10-30T16:26:34.184Z,20.35
2022-10-30T16:29:17.039Z,19.98
2022-10-30T16:31:50.288Z,20.67
2022-10-30T16:34:24.639Z,21.82
2022-10-30T16:36:55.276Z,21.73
2022-10-30T16:39:26.317Z,20.98
2022-10-30T16:41:59.204Z,20.34
2022-10-30T16:44:30.258Z,19.90
2022-10-30T16:47:03.555Z,20.44
2022-10-30T16:49:36.618Z,21.49
2022-10-30T16:52:08.193Z,21.96
2022-10-30T16:54:40.181Z,21.31
2022-10-30T16:57:21.028Z,20.57
2022-10-30T16:59:52.267Z,19.99
2022-10-30T17:02:23.888Z,19.59
2022-10-30T17:04:58.187Z,19.55
2022-10-30T17:07:29.359Z,20.59
2022-10-30T17:09:59.689Z,21.48
2022-10-30T17:12:30.790Z,21.82
2022-10-30T17:15:12.787Z,21.13
2022-10-30T17:17:43.580Z,20.29
2022-10-30T17:20:30.809Z,19.73
2022-10-30T17:23:14.886Z,19.25
2022-10-30T17:25:45.859Z,19.28
2022-10-30T17:31:27.288Z,21.38
2022-10-30T17:34:18.194Z,21.62
2022-10-30T17:36:51.774Z,20.67
2022-10-30T17:39:24.139Z,19.87
2022-10-30T17:41:57.389Z,19.31
2022-10-30T17:44:31.145Z,19.20
2022-10-30T17:47:01.840Z,20.25
2022-10-30T17:49:33.543Z,21.12
2022-10-30T17:52:04.944Z,21.41
2022-10-30T17:54:36.025Z,20.58
2022-10-30T17:57:06.860Z,19.64
2022-10-30T17:59:38.003Z,19.17
2022-10-30T18:02:13.221Z,19.92
2022-10-30T18:04:44.588Z,20.72
2022-10-30T18:07:15.728Z,21.19
2022-10-30T18:09:47.390Z,21.19
2022-10-30T18:12:19.357Z,20.23
2022-10-30T18:14:50.113Z,19.27
2022-10-30T18:17:20.652Z,18.89
2022-10-30T18:19:51.316Z,19.72
2022-10-30T18:22:22.283Z,20.52
2022-10-30T18:24:53.425Z,21.03
2022-10-30T18:27:23.847Z,21.14
2022-10-30T18:29:55.328Z,20.25
2022-10-30T18:32:25.616Z,19.32
2022-10-30T18:34:56.354Z,18.91
2022-10-30T18:37:26.797Z,19.72
2022-10-30T18:39:57.955Z,20.52
2022-10-30T18:42:28.265Z,21.00
2022-10-30T18:44:58.972Z,21.08
2022-10-30T18:47:29.261Z,20.20
2022-10-30T18:50:00.235Z,19.24
2022-10-30T18:52:31.193Z,18.79
2022-10-30T18:55:02.540Z,19.60
2022-10-30T18:57:32.958Z,20.38
2022-10-30T19:00:06.946Z,20.86
2022-10-30T19:02:37.448Z,20.89
2022-10-30T19:05:18.389Z,19.92
2022-10-30T19:07:48.891Z,18.86
2022-10-30T19:10:19.937Z,18.47
2022-10-30T19:13:11.008Z,19.29
2022-10-30T19:15:43.261Z,20.14
2022-10-30T19:18:13.997Z,20.55
2022-10-30T19:21:03.747Z,20.81
2022-10-30T19:23:35.490Z,20.55
2022-10-30T19:26:06.889Z,19.30
2022-10-30T19:28:38.384Z,18.43
2022-10-30T19:31:09.472Z,18.97
2022-10-30T19:33:39.845Z,19.51
2022-10-30T19:39:12.607Z,20.14
2022-10-30T19:41:43.839Z,20.32
2022-10-30T19:44:14.659Z,20.48
2022-10-30T19:46:45.699Z,20.64
2022-10-30T19:49:18.969Z,20.76
2022-10-30T19:51:49.861Z,20.55
2022-10-30T19:54:20.386Z,19.39
2022-10-30T19:56:51.044Z,18.21
2022-10-30T19:59:23.579Z,18.08
2022-10-30T20:01:57.299Z,18.90
2022-10-30T20:04:32.101Z,19.44
2022-10-30T20:07:04.174Z,19.62
2022-10-30T20:09:35.176Z,19.64
2022-10-30T20:12:06.966Z,19.74
2022-10-30T20:14:37.379Z,19.66
2022-10-30T20:17:08.294Z,19.57
2022-10-30T20:19:38.961Z,19.63
2022-10-30T20:22:13.693Z,19.80
2022-10-30T20:24:45.067Z,20.26
2022-10-30T20:27:17.914Z,20.15
2022-10-30T20:29:49.562Z,19.91
2022-10-30T20:32:21.268Z,19.86
2022-10-30T20:34:52.637Z,19.75
2022-10-30T20:37:24.387Z,19.69
2022-10-30T20:39:56.634Z,19.79
2022-10-30T20:42:31.904Z,19.78
2022-10-30T20:45:06.812Z,19.76
2022-10-30T20:47:37.865Z,19.54
2022-10-30T20:50:10.202Z,19.70
2022-10-30T20:52:41.895Z,19.77
2022-10-30T20:55:13.840Z,19.69
2022-10-30T20:57:44.603Z,19.53
2022-10-30T21:00:17.392Z,19.65
2022-10-30T21:02:51.657Z,19.64
2022-10-30T21:08:19.283Z,19.56
2022-10-30T21:10:55.085Z,19.72
2022-10-30T21:13:29.293Z,19.67
2022-10-30T21:16:05.276Z,19.73
2022-10-30T21:18:37.415Z,19.15
2022-10-30T21:21:11.752Z,17.73
2022-10-30T21:23:42.412Z,17.91
2022-10-30T21:26:12.946Z,18.41
2022-10-30T21:28:43.551Z,18.77
2022-10-30T21:31:14.303Z,18.88
2022-10-30T21:33:44.848Z,18.99
2022-10-30T21:36:16.720Z,18.78
2022-10-30T21:38:48.076Z,18.39
2022-10-30T21:41:19.463Z,18.32
2022-10-30T21:43:54.366Z,18.18
2022-10-30T21:46:26.460Z,18.32
2022-10-30T21:48:57.228Z,18.51
2022-10-30T21:51:28.285Z,18.57
2022-10-30T21:53:59.001Z,18.73
2022-10-30T21:56:30.432Z,18.59
2022-10-30T21:59:04.858Z,18.40
2022-10-30T22:01:36.907Z,18.45
2022-10-30T22:04:08.264Z,18.70
2022-10-30T22:06:40.842Z,18.82
2022-10-30T22:09:11.794Z,18.87
2022-10-30T22:11:42.317Z,18.96
2022-10-30T22:14:13.063Z,18.76
2022-10-30T22:16:43.509Z,18.44
2022-10-30T22:19:14.209Z,18.57
2022-10-30T22:21:44.630Z,18.56
2022-10-30T22:24:16.175Z,18.70
2022-10-30T22:26:47.356Z,18.83
2022-10-30T22:29:18.210Z,18.50
2022-10-30T22:31:48.720Z,18.27
2022-10-30T22:34:19.381Z,18.43
2022-10-30T22:36:50.357Z,18.60
2022-10-30T22:39:21.600Z,18.67
2022-10-30T22:41:52.064Z,18.55
2022-10-30T22:44:23.885Z,18.65
2022-10-30T22:46:54.832Z,18.78
2022-10-30T22:49:25.588Z,18.83
2022-10-30T22:51:56.120Z,18.94
2022-10-30T22:54:27.131Z,19.04
2022-10-30T22:56:57.964Z,19.17
2022-10-30T22:59:29.121Z,19.31
2022-10-30T23:01:59.731Z,19.44
2022-10-30T23:04:30.677Z,19.53
2022-10-30T23:07:01.361Z,19.38
2022-10-30T23:09:31.903Z,18.26
2022-10-30T23:12:02.155Z,17.13
2022-10-30T23:14:33.008Z,16.62
2022-10-30T23:17:03.217Z,17.32
2022-10-30T23:19:34.105Z,18.03
2022-10-30T23:22:04.558Z,18.38
2022-10-30T23:24:35.447Z,18.61
2022-10-30T23:27:06.057Z,18.72
2022-10-30T23:29:36.498Z,18.80
2022-10-30T23:32:07.345Z,18.85
2022-10-30T23:34:38.096Z,18.87
2022-10-30T23:37:08.649Z,18.93
2022-10-30T23:39:39.327Z,19.00
2022-10-30T23:42:09.734Z,18.84
2022-10-30T23:44:39.972Z,17.69
2022-10-30T23:47:10.831Z,16.76
2022-10-30T23:49:41.209Z,16.95
2022-10-30T23:52:12.268Z,17.34
2022-10-30T23:54:42.675Z,17.71
2022-10-30T23:57:13.740Z,17.96
2022-10-30T23:59:44.037Z,18.12
